Time;durP1;ratioP1;P1;durP2;ratioP2;P2;SDS_P1;SDS_P2;PMS_P1;PMS_P2;Temp;Humidity;BMP_temperature;BMP_pressure;BME280_temperature;BME280_humidity;BME280_pressure;Samples;Min_cycle;Max_cycle;Signal;HPM_P1;HPM_P2
2022/11/14 00:06:30;;;;;;;0.20;0.00;;;15.00;99.90;;;;;;25533349;23;20370;-71
2022/11/14 00:16:34;;;;;;;0.20;0.00;;;15.00;99.90;;;;;;25534520;23;20373;-72
2022/11/14 00:26:39;;;;;;;0.20;0.10;;;15.10;99.90;;;;;;25507649;23;20369;-71
2022/11/14 00:36:43;;;;;;;0.20;0.10;;;15.20;99.90;;;;;;25532767;23;20393;-72
2022/11/14 00:46:48;;;;;;;0.20;0.10;;;15.20;99.90;;;;;;25534722;23;20365;-72
2022/11/14 00:56:52;;;;;;;0.20;0.00;;;15.30;99.90;;;;;;25531237;23;20389;-72
2022/11/14 01:06:58;;;;;;;0.20;0.10;;;15.20;99.90;;;;;;25529896;23;20369;-71
2022/11/14 01:17:01;;;;;;;0.20;0.10;;;15.20;99.90;;;;;;25533932;23;20377;-72
2022/11/14 01:27:06;;;;;;;0.20;0.00;;;15.20;99.90;;;;;;25506191;23;20396;-71
2022/11/14 01:37:10;;;;;;;0.20;0.10;;;15.30;99.90;;;;;;25532976;23;20384;-71
2022/11/14 01:47:19;;;;;;;0.20;0.10;;;15.40;99.90;;;;;;25517279;23;20377;-72
2022/11/14 01:57:27;;;;;;;0.20;0.00;;;15.40;99.90;;;;;;25515194;23;20409;-72
2022/11/14 02:07:35;;;;;;;0.20;0.10;;;15.30;99.90;;;;;;25541969;23;20467;-71
2022/11/14 02:17:41;;;;;;;0.20;0.00;;;15.30;99.90;;;;;;25540695;23;20377;-71
2022/11/14 02:27:46;;;;;;;0.20;0.00;;;15.60;99.90;;;;;;25537189;23;21118;-71
2022/11/14 02:37:50;;;;;;;0.20;0.00;;;15.80;99.90;;;;;;25539221;23;20374;-72
2022/11/14 02:47:56;;;;;;;0.20;0.10;;;15.70;99.90;;;;;;25538397;23;20373;-72
2022/11/14 02:57:59;;;;;;;0.20;0.00;;;15.50;99.90;;;;;;25539347;23;20700;-72
2022/11/14 03:08:05;;;;;;;0.20;0.10;;;15.70;99.90;;;;;;25486151;23;20375;-72
2022/11/14 03:18:08;;;;;;;0.20;0.00;;;15.40;99.90;;;;;;25512632;23;20377;-72
2022/11/14 03:28:15;;;;;;;0.20;0.10;;;15.50;99.90;;;;;;25509903;23;20373;-71
2022/11/14 03:38:21;;;;;;;0.20;0.00;;;15.50;99.90;;;;;;25537403;23;20381;-71
2022/11/14 03:48:27;;;;;;;0.20;0.00;;;15.70;99.90;;;;;;25512197;23;20388;-71
2022/11/14 03:58:31;;;;;;;0.20;0.00;;;15.70;99.90;;;;;;25508381;23;20419;-71
2022/11/14 04:08:39;;;;;;;0.20;0.10;;;15.80;99.90;;;;;;25534509;23;20440;-72
2022/11/14 04:18:43;;;;;;;0.20;0.10;;;16.00;99.90;;;;;;25532762;23;20376;-72
2022/11/14 04:28:48;;;;;;;0.20;0.03;;;16.20;99.90;;;;;;25536214;23;20366;-72
2022/11/14 04:38:51;;;;;;;0.20;0.10;;;16.30;99.90;;;;;;25507116;23;20405;-73
2022/11/14 04:48:59;;;;;;;0.20;0.10;;;16.00;99.90;;;;;;25510411;23;20395;-72
2022/11/14 04:59:03;;;;;;;0.20;0.00;;;15.80;99.90;;;;;;25506385;23;20389;-71
2022/11/14 05:09:08;;;;;;;0.20;0.00;;;15.60;99.90;;;;;;25534811;23;20362;-73
2022/11/14 05:19:12;;;;;;;0.20;0.00;;;15.50;99.90;;;;;;25513408;23;20385;-72
2022/11/14 05:29:18;;;;;;;0.20;0.10;;;15.60;99.90;;;;;;25542628;23;20373;-72
2022/11/14 05:39:21;;;;;;;0.20;0.00;;;15.60;99.90;;;;;;25542100;23;20378;-72
2022/11/14 05:49:29;;;;;;;0.20;0.10;;;15.60;99.90;;;;;;25512724;23;20376;-73
2022/11/14 05:59:33;;;;;;;0.20;0.00;;;15.50;99.90;;;;;;25540832;23;20381;-72
2022/11/14 06:09:38;;;;;;;0.20;0.00;;;15.50;99.90;;;;;;25536941;23;20465;-72
2022/11/14 06:19:42;;;;;;;0.20;0.10;;;15.20;99.90;;;;;;25539016;23;20385;-72
2022/11/14 06:29:47;;;;;;;0.20;0.10;;;15.20;99.90;;;;;;25535750;23;20388;-73
2022/11/14 06:39:53;;;;;;;0.20;0.00;;;15.40;99.90;;;;;;25511718;23;20396;-72
2022/11/14 06:49:59;;;;;;;0.20;0.00;;;15.70;99.90;;;;;;25531660;23;20377;-73
2022/11/14 07:00:05;;;;;;;0.20;0.00;;;15.70;99.90;;;;;;25523283;23;20376;-73
2022/11/14 07:10:10;;;;;;;0.20;0.10;;;16.00;99.90;;;;;;25531553;23;20377;-72
2022/11/14 07:20:17;;;;;;;0.20;0.00;;;15.90;99.90;;;;;;25534120;23;20417;-73
2022/11/14 07:30:22;;;;;;;0.20;0.10;;;16.00;99.90;;;;;;25509906;23;20397;-72
2022/11/14 07:40:26;;;;;;;0.20;0.10;;;16.20;99.90;;;;;;25529819;23;20373;-73
2022/11/14 07:50:31;;;;;;;0.20;0.00;;;16.60;99.90;;;;;;25532691;23;20509;-71
2022/11/14 08:00:35;;;;;;;0.20;0.10;;;17.00;99.90;;;;;;25528151;23;20373;-69
2022/11/14 08:10:40;;;;;;;0.20;0.00;;;17.50;99.90;;;;;;25530421;23;21432;-71
2022/11/14 08:20:44;;;;;;;0.20;0.10;;;17.90;99.90;;;;;;25531482;23;20504;-72
2022/11/14 08:30:50;;;;;;;0.20;0.00;;;18.30;99.90;;;;;;25532115;23;20365;-73
2022/11/14 08:40:53;;;;;;;0.20;0.00;;;18.30;99.90;;;;;;25504035;23;20396;-74
2022/11/14 08:51:03;;;;;;;0.20;0.00;;;18.20;99.90;;;;;;25532844;23;20380;-72
2022/11/14 09:01:08;;;;;;;0.20;0.00;;;18.50;99.90;;;;;;25531688;23;20396;-73
2022/11/14 09:11:13;;;;;;;0.20;0.10;;;18.60;99.90;;;;;;25530843;23;20374;-73
2022/11/14 09:21:21;;;;;;;0.20;0.00;;;18.70;99.90;;;;;;25503763;23;20405;-73
2022/11/14 09:31:32;;;;;;;0.20;0.00;;;19.20;99.90;;;;;;25527910;23;20357;-72
2022/11/14 09:41:49;;;;;;;0.20;0.00;;;19.40;99.90;;;;;;25529529;23;20377;-72
2022/11/14 09:51:59;;;;;;;0.20;0.08;;;19.80;99.90;;;;;;25529416;23;20365;-72
2022/11/14 10:02:15;;;;;;;0.20;0.03;;;20.30;99.90;;;;;;25530537;23;20380;-72
2022/11/14 10:12:35;;;;;;;0.20;0.00;;;20.50;99.90;;;;;;25508689;23;21015;-68
2022/11/14 10:22:57;;;;;;;0.20;0.00;;;20.80;99.90;;;;;;25534187;23;20381;-72
2022/11/14 10:33:17;;;;;;;0.20;0.00;;;21.20;99.90;;;;;;25535486;23;20365;-71
2022/11/14 10:43:26;;;;;;;0.20;0.00;;;21.90;99.90;;;;;;25535854;23;20381;-72
2022/11/14 10:53:42;;;;;;;0.20;0.00;;;21.20;99.90;;;;;;25535466;23;20393;-71
2022/11/14 11:03:46;;;;;;;0.20;0.00;;;20.80;99.90;;;;;;25511346;23;20393;-72
2022/11/14 11:13:55;;;;;;;0.20;0.00;;;22.20;99.90;;;;;;25529694;23;20376;-70
2022/11/14 11:23:58;;;;;;;0.20;0.00;;;23.60;99.90;;;;;;25532002;23;20380;-71
2022/11/14 11:34:09;;;;;;;0.20;0.00;;;23.90;99.90;;;;;;25535034;23;20377;-70
2022/11/14 11:44:16;;;;;;;0.20;0.00;;;23.70;99.90;;;;;;25534521;23;20409;-74
2022/11/14 11:54:27;;;;;;;0.20;0.00;;;24.20;99.90;;;;;;25531882;23;20443;-71
2022/11/14 12:04:31;;;;;;;0.20;0.00;;;24.40;99.90;;;;;;25508042;23;20381;-71
2022/11/14 12:15:01;;;;;;;0.20;0.00;;;24.00;99.90;;;;;;25534556;23;20385;-71
2022/11/14 12:25:25;;;;;;;0.20;0.00;;;23.40;99.90;;;;;;25505703;23;20370;-71
2022/11/14 12:35:34;;;;;;;0.20;0.00;;;23.20;99.90;;;;;;25504983;23;20377;-71
2022/11/14 12:45:58;;;;;;;0.20;0.00;;;23.80;99.90;;;;;;25533717;23;20376;-68
2022/11/14 12:56:34;;;;;;;0.20;0.00;;;23.50;99.90;;;;;;25530544;23;20456;-71
2022/11/14 13:06:46;;;;;;;0.20;0.00;;;22.50;99.90;;;;;;25531424;23;20369;-71
2022/11/14 13:27:27;;;;;;;0.20;0.00;;;22.40;99.90;;;;;;25485702;23;20411;-71
2022/11/14 13:38:18;;;;;;;0.20;0.00;;;21.90;99.90;;;;;;25524295;23;20373;-72
2022/11/14 13:48:47;;;;;;;0.20;0.00;;;21.50;99.90;;;;;;25533235;23;20392;-72
2022/11/14 13:59:22;;;;;;;0.20;0.00;;;21.50;99.90;;;;;;25535182;23;20369;-73
2022/11/14 14:09:32;;;;;;;0.20;0.00;;;21.80;99.90;;;;;;25534508;23;21039;-73
2022/11/14 14:19:51;;;;;;;0.20;0.00;;;21.60;99.90;;;;;;25535202;23;20397;-71
2022/11/14 14:30:03;;;;;;;0.20;0.00;;;21.60;99.90;;;;;;25536301;23;20365;-71
2022/11/14 14:40:24;;;;;;;0.20;0.00;;;21.80;99.90;;;;;;25508808;23;20384;-70
2022/11/14 14:50:31;;;;;;;0.20;0.00;;;21.80;99.90;;;;;;25507766;23;20369;-71
2022/11/14 15:00:36;;;;;;;0.20;0.00;;;22.60;99.90;;;;;;25530925;23;20372;-72
2022/11/14 15:10:41;;;;;;;0.20;0.00;;;21.10;99.90;;;;;;25533518;23;20380;-74
2022/11/14 15:21:06;;;;;;;0.20;0.00;;;21.80;99.90;;;;;;25505167;23;20396;-73
2022/11/14 15:31:18;;;;;;;0.20;0.00;;;21.50;99.90;;;;;;25533746;23;20377;-72
2022/11/14 15:41:26;;;;;;;0.20;0.00;;;21.60;99.90;;;;;;25531129;23;20477;-72
2022/11/14 15:51:44;;;;;;;0.20;0.00;;;21.00;99.90;;;;;;25528383;23;20369;-74
2022/11/14 16:01:52;;;;;;;0.20;0.00;;;21.10;99.90;;;;;;25525410;23;20381;-73
2022/11/14 16:12:00;;;;;;;0.20;0.00;;;21.00;99.90;;;;;;25527769;23;20392;-74
2022/11/14 16:22:06;;;;;;;0.20;0.00;;;21.00;99.90;;;;;;25429796;23;20388;-72
2022/11/14 16:32:11;;;;;;;0.20;0.00;;;20.80;99.90;;;;;;25405669;23;20363;-75
2022/11/14 16:42:16;;;;;;;0.20;0.00;;;20.70;99.90;;;;;;25405771;23;20389;-73
2022/11/14 16:52:20;;;;;;;0.20;0.00;;;20.60;99.90;;;;;;25407564;23;20382;-73
2022/11/14 17:02:25;;;;;;;0.20;0.05;;;20.60;99.90;;;;;;25382257;23;20391;-72
2022/11/14 17:12:29;;;;;;;0.20;0.00;;;20.30;99.90;;;;;;25412099;23;20386;-71
2022/11/14 17:22:34;;;;;;;0.20;0.00;;;19.90;99.90;;;;;;25536845;23;20400;-71
2022/11/14 17:32:38;;;;;;;0.20;0.00;;;20.10;99.90;;;;;;25509766;23;20365;-71
2022/11/14 17:42:43;;;;;;;0.20;0.00;;;20.20;99.90;;;;;;25534612;23;20377;-71
2022/11/14 17:52:47;;;;;;;0.20;0.00;;;20.00;99.90;;;;;;25534021;23;20366;-71
2022/11/14 18:02:52;;;;;;;0.20;0.10;;;20.10;99.90;;;;;;25534842;23;20405;-72
2022/11/14 18:12:56;;;;;;;0.20;0.00;;;19.80;99.90;;;;;;25532576;23;20369;-69
2022/11/14 18:23:01;;;;;;;0.20;0.00;;;20.00;99.90;;;;;;25533443;23;20381;-69
2022/11/14 18:33:05;;;;;;;0.20;0.10;;;20.00;99.90;;;;;;25531993;23;20393;-72
2022/11/14 18:43:10;;;;;;;0.20;0.00;;;19.90;99.90;;;;;;25534243;23;20377;-70
2022/11/14 18:53:13;;;;;;;0.20;0.00;;;19.90;99.90;;;;;;25504316;23;20443;-70
2022/11/14 19:03:19;;;;;;;0.20;0.00;;;19.90;99.90;;;;;;25527408;23;20373;-73
2022/11/14 19:13:24;;;;;;;0.20;0.00;;;20.00;99.90;;;;;;25495313;23;20365;-70
2022/11/14 19:23:30;;;;;;;0.20;0.10;;;20.10;99.90;;;;;;25498397;23;20396;-70
2022/11/14 19:33:35;;;;;;;0.20;0.00;;;20.10;99.90;;;;;;25529844;23;20469;-70
2022/11/14 19:43:42;;;;;;;0.20;0.00;;;20.00;99.90;;;;;;25528687;23;20373;-70
2022/11/14 19:53:47;;;;;;;0.20;0.03;;;19.90;99.90;;;;;;25527811;23;20372;-71
2022/11/14 20:03:53;;;;;;;0.20;0.07;;;19.90;99.90;;;;;;25501668;23;20385;-69
2022/11/14 20:13:58;;;;;;;0.20;0.00;;;19.70;99.90;;;;;;25521335;23;20377;-70
2022/11/14 20:24:04;;;;;;;0.20;0.00;;;19.70;99.90;;;;;;25526219;23;20365;-70
2022/11/14 20:34:08;;;;;;;0.20;0.00;;;19.70;99.90;;;;;;25527031;23;20368;-70
2022/11/14 20:44:13;;;;;;;0.20;0.00;;;19.40;99.90;;;;;;25527007;23;20385;-70
2022/11/14 20:54:17;;;;;;;0.20;0.00;;;19.70;99.90;;;;;;25500072;23;20408;-72
2022/11/14 21:04:22;;;;;;;0.20;0.00;;;19.50;99.90;;;;;;25530433;23;20366;-72
2022/11/14 21:14:28;;;;;;;0.20;0.00;;;19.30;99.90;;;;;;25531624;23;20377;-72
2022/11/14 21:24:33;;;;;;;0.20;0.00;;;19.20;99.90;;;;;;25532345;23;21343;-72
2022/11/14 21:34:42;;;;;;;0.20;0.00;;;19.00;99.90;;;;;;25504427;23;20369;-71
2022/11/14 21:44:49;;;;;;;0.20;0.00;;;18.80;99.90;;;;;;25528383;23;20385;-73
2022/11/14 21:54:55;;;;;;;0.20;0.00;;;18.80;99.90;;;;;;25526441;23;20381;-71
2022/11/14 22:05:01;;;;;;;0.20;0.20;;;18.60;99.90;;;;;;25538032;23;20365;-71
2022/11/14 22:15:05;;;;;;;0.20;0.00;;;18.50;99.90;;;;;;25539318;23;20385;-71
2022/11/14 22:25:13;;;;;;;0.40;0.40;;;18.40;99.90;;;;;;25538335;23;20377;-70
2022/11/14 22:35:16;;;;;;;0.20;0.00;;;17.90;99.90;;;;;;25537459;23;20380;-73
2022/11/14 22:45:25;;;;;;;0.20;0.00;;;17.90;99.90;;;;;;25510573;23;20379;-72
2022/11/14 22:55:29;;;;;;;0.20;0.10;;;18.00;99.90;;;;;;25538780;23;20365;-72
2022/11/14 23:05:37;;;;;;;0.20;0.00;;;18.00;99.90;;;;;;25537749;23;20404;-71
2022/11/14 23:15:47;;;;;;;0.20;0.10;;;18.00;99.90;;;;;;25510154;23;20373;-71
2022/11/14 23:25:52;;;;;;;0.20;0.00;;;18.10;99.90;;;;;;25511059;23;20395;-72
2022/11/14 23:35:56;;;;;;;0.20;0.00;;;18.20;99.90;;;;;;25511769;23;20361;-71
2022/11/14 23:46:02;;;;;;;0.20;0.10;;;17.90;99.90;;;;;;25512528;23;20377;-71
2022/11/14 23:56:06;;;;;;;0.20;0.10;;;17.50;99.90;;;;;;25534693;23;20372;-71
